Time;durP1;ratioP1;P1;durP2;ratioP2;P2;SDS_P1;SDS_P2;PMS_P1;PMS_P2;Temp;Humidity;BMP_temperature;BMP_pressure;BME280_temperature;BME280_humidity;BME280_pressure;Samples;Min_cycle;Max_cycle;Signal;HPM_P1;HPM_P2
2022/10/10 00:00:49;;;;;;;;;;;;;;;;;;4743196;29;20020;-90
2022/10/10 00:03:15;;;;;;;;;;;;;;;;;;4730987;30;20020;-89
2022/10/10 00:05:41;;;;;;;;;;;;;;;;;;4732912;30;19936;-90
2022/10/10 00:08:07;;;;;;;;;;;;;;;;;;4744890;29;20290;-89
2022/10/10 00:10:33;;;;;;;;;;;;;;;;;;4733475;30;19971;-90
2022/10/10 00:12:59;;;;;;;;;;;;;;;;;;4742547;29;19936;-89
2022/10/10 00:15:25;;;;;;;;;;;;;;;;;;4746423;30;19925;-89
2022/10/10 00:17:51;;;;;;;;;;;;;;;;;;4738915;30;19991;-90
2022/10/10 00:20:17;;;;;;;;;;;;;;;;;;4731028;30;20012;-89
2022/10/10 00:22:43;;;;;;;;;;;;;;;;;;4732500;30;19934;-89
2022/10/10 00:25:09;;;;;;;;;;;;;;;;;;4743501;29;22321;-89
2022/10/10 00:27:35;;;;;;;;;;;;;;;;;;4748355;30;19934;-89
2022/10/10 00:30:01;;;;;;;;;;;;;;;;;;4740594;29;19925;-90
2022/10/10 00:32:27;;;;;;;;;;;;;;;;;;4733606;30;20401;-90
2022/10/10 00:34:53;;;;;;;;;;;;;;;;;;4732229;29;20663;-89
2022/10/10 00:37:19;;;;;;;;;;;;;;;;;;4748792;30;19932;-89
2022/10/10 00:39:45;;;;;;;;;;;;;;;;;;4744694;29;19929;-89
2022/10/10 00:42:11;;;;;;;;;;;;;;;;;;4742447;29;20005;-89
2022/10/10 00:44:37;;;;;;;;;;;;;;;;;;4734010;30;20016;-89
2022/10/10 00:47:03;;;;;;;;;;;;;;;;;;4749194;29;19945;-89
2022/10/10 00:49:30;;;;;;;;;;;;;;;;;;4734634;30;19949;-89
2022/10/10 00:51:56;;;;;;;;;;;;;;;;;;4724402;29;19940;-89
2022/10/10 00:54:22;;;;;;;;;;;;;;;;;;4747790;30;19930;-89
2022/10/10 00:56:51;;;;;;;;;;;;;;;;;;4749607;30;19945;-88
2022/10/10 00:59:17;;;;;;;;;;;;;;;;;;4745678;29;19977;-88
2022/10/10 01:01:43;;;;;;;;;;;;;;;;;;4761887;29;20024;-89
2022/10/10 01:04:09;;;;;;;;;;;;;;;;;;4742541;29;20008;-88
2022/10/10 01:06:35;;;;;;;;;;;;;;;;;;4745343;30;20020;-88
2022/10/10 01:09:01;;;;;;;;;;;;;;;;;;4738087;29;19941;-89
2022/10/10 01:11:27;;;;;;;;;;;;;;;;;;4730083;30;19933;-89
2022/10/10 01:13:56;;;;;;;;;;;;;;;;;;4735392;29;20005;-89
2022/10/10 01:16:22;;;;;;;;;;;;;;;;;;4740728;30;19930;-89
2022/10/10 01:18:51;;;;;;;;;;;;;;;;;;4742798;30;19934;-88
2022/10/10 01:21:17;;;;;;;;;;;;;;;;;;4744982;30;19930;-89
2022/10/10 01:23:43;;;;;;;;;;;;;;;;;;4754172;30;19930;-89
2022/10/10 01:26:09;;;;;;;;;;;;;;;;;;4737406;30;20632;-88
2022/10/10 01:28:35;;;;;;;;;;;;;;;;;;4744979;30;19926;-88
2022/10/10 01:31:00;;;;;;;;;;;;;;;;;;4739455;29;19984;-88
2022/10/10 01:33:26;;;;;;;;;;;;;;;;;;4742271;30;19930;-89
2022/10/10 01:35:52;;;;;;;;;;;;;;;;;;4741079;29;20002;-89
2022/10/10 01:38:18;;;;;;;;;;;;;;;;;;4729870;29;19934;-89
2022/10/10 01:40:44;;;;;;;;;;;;;;;;;;4745815;29;20016;-89
2022/10/10 01:43:13;;;;;;;;;;;;;;;;;;4714008;29;19929;-89
2022/10/10 01:45:39;;;;;;;;;;;;;;;;;;4722183;30;19933;-88
2022/10/10 01:48:05;;;;;;;;;;;;;;;;;;4733954;29;19926;-90
2022/10/10 01:50:31;;;;;;;;;;;;;;;;;;4742542;30;19940;-90
2022/10/10 01:52:57;;;;;;;;;;;;;;;;;;4723497;29;19943;-89
2022/10/10 01:55:23;;;;;;;;;;;;;;;;;;4737479;30;19937;-90
2022/10/10 01:57:49;;;;;;;;;;;;;;;;;;4724215;30;19934;-89
2022/10/10 02:00:18;;;;;;;;;;;;;;;;;;4712950;29;20044;-90
2022/10/10 02:02:44;;;;;;;;;;;;;;;;;;4732249;29;19961;-89
2022/10/10 02:05:10;;;;;;;;;;;;;;;;;;4732402;29;20820;-90
2022/10/10 02:07:36;;;;;;;;;;;;;;;;;;4738133;30;19934;-90
2022/10/10 02:10:02;;;;;;;;;;;;;;;;;;4722054;29;19940;-89
2022/10/10 02:12:28;;;;;;;;;;;;;;;;;;4722650;30;19933;-90
2022/10/10 02:14:54;;;;;;;;;;;;;;;;;;4733658;29;19938;-89
2022/10/10 02:17:20;;;;;;;;;;;;;;;;;;4736508;29;19933;-89
2022/10/10 02:19:46;;;;;;;;;;;;;;;;;;4739280;30;20389;-90
2022/10/10 02:22:12;;;;;;;;;;;;;;;;;;4736614;29;19937;-89
2022/10/10 02:24:40;;;;;;;;;;;;;;;;;;4725142;30;19925;-90
2022/10/10 02:27:06;;;;;;;;;;;;;;;;;;4729298;29;20338;-90
2022/10/10 02:29:32;;;;;;;;;;;;;;;;;;4742201;30;19940;-89
2022/10/10 02:31:58;;;;;;;;;;;;;;;;;;4723910;30;20445;-89
2022/10/10 02:34:24;;;;;;;;;;;;;;;;;;4723897;30;19973;-90
2022/10/10 02:36:50;;;;;;;;;;;;;;;;;;4732040;29;19938;-90
2022/10/10 02:39:16;;;;;;;;;;;;;;;;;;4723278;30;19925;-90
2022/10/10 02:41:42;;;;;;;;;;;;;;;;;;4736884;30;20408;-90
2022/10/10 02:44:11;;;;;;;;;;;;;;;;;;4735542;29;20384;-89
2022/10/10 02:46:37;;;;;;;;;;;;;;;;;;4738318;30;19991;-89
2022/10/10 02:49:03;;;;;;;;;;;;;;;;;;4719774;29;19937;-89
2022/10/10 02:51:29;;;;;;;;;;;;;;;;;;4737399;30;19930;-90
2022/10/10 02:53:55;;;;;;;;;;;;;;;;;;4734876;29;19956;-90
2022/10/10 02:56:21;;;;;;;;;;;;;;;;;;4729140;30;19973;-89
2022/10/10 02:58:47;;;;;;;;;;;;;;;;;;4734046;30;19934;-90
2022/10/10 03:01:13;;;;;;;;;;;;;;;;;;4728542;29;20462;-90
2022/10/10 03:03:39;;;;;;;;;;;;;;;;;;4721043;30;19934;-89
2022/10/10 03:06:05;;;;;;;;;;;;;;;;;;4727225;29;20409;-89
2022/10/10 03:08:31;;;;;;;;;;;;;;;;;;4736081;29;19934;-89
2022/10/10 03:10:57;;;;;;;;;;;;;;;;;;4729814;29;20385;-90
2022/10/10 03:13:23;;;;;;;;;;;;;;;;;;4740394;30;19933;-89
2022/10/10 03:15:49;;;;;;;;;;;;;;;;;;4735020;29;20290;-89
2022/10/10 03:18:15;;;;;;;;;;;;;;;;;;4737015;30;19945;-89
2022/10/10 03:20:41;;;;;;;;;;;;;;;;;;4739987;30;20040;-90
2022/10/10 03:23:07;;;;;;;;;;;;;;;;;;4720919;29;20026;-89
2022/10/10 03:25:33;;;;;;;;;;;;;;;;;;4738451;30;19936;-90
2022/10/10 03:27:59;;;;;;;;;;;;;;;;;;4727078;29;19942;-90
2022/10/10 03:30:25;;;;;;;;;;;;;;;;;;4729850;30;19936;-90
2022/10/10 03:32:51;;;;;;;;;;;;;;;;;;4725848;29;19925;-90
2022/10/10 03:35:17;;;;;;;;;;;;;;;;;;4743101;30;19991;-90
2022/10/10 03:37:43;;;;;;;;;;;;;;;;;;4757010;29;19938;-90
2022/10/10 03:40:17;;;;;;;;;;;;;;;;;;4742570;29;20500;-90
2022/10/10 03:42:43;;;;;;;;;;;;;;;;;;4741438;30;19933;-89
2022/10/10 03:45:09;;;;;;;;;;;;;;;;;;4738385;29;20891;-90
2022/10/10 03:47:35;;;;;;;;;;;;;;;;;;4731115;30;19930;-91
2022/10/10 03:50:01;;;;;;;;;;;;;;;;;;4743278;29;19937;-89
2022/10/10 03:52:27;;;;;;;;;;;;;;;;;;4740325;29;19933;-90
2022/10/10 03:54:53;;;;;;;;;;;;;;;;;;4719829;29;20926;-89
2022/10/10 03:57:19;;;;;;;;;;;;;;;;;;4745697;30;19926;-90
2022/10/10 03:59:45;;;;;;;;;;;;;;;;;;4745742;30;20243;-90
2022/10/10 04:02:11;;;;;;;;;;;;;;;;;;4737837;29;20008;-90
2022/10/10 04:04:36;;;;;;;;;;;;;;;;;;4743434;30;19968;-90
2022/10/10 04:07:02;;;;;;;;;;;;;;;;;;4742840;30;20290;-89
2022/10/10 04:09:28;;;;;;;;;;;;;;;;;;4731486;30;19969;-90
2022/10/10 04:11:54;;;;;;;;;;;;;;;;;;4725232;29;19941;-90
2022/10/10 04:14:20;;;;;;;;;;;;;;;;;;4725498;29;19930;-90
2022/10/10 04:16:46;;;;;;;;;;;;;;;;;;4744560;30;20021;-89
2022/10/10 04:19:12;;;;;;;;;;;;;;;;;;4721475;30;20406;-90
2022/10/10 04:21:38;;;;;;;;;;;;;;;;;;4740549;30;19955;-90
2022/10/10 04:24:07;;;;;;;;;;;;;;;;;;4707671;30;19937;-90
2022/10/10 04:26:33;;;;;;;;;;;;;;;;;;4714008;30;19934;-90
2022/10/10 04:29:00;;;;;;;;;;;;;;;;;;4716682;30;19930;-90
2022/10/10 04:31:26;;;;;;;;;;;;;;;;;;4708012;30;20364;-90
2022/10/10 04:33:52;;;;;;;;;;;;;;;;;;4724477;30;19933;-90
2022/10/10 04:36:18;;;;;;;;;;;;;;;;;;4712977;30;20034;-90
2022/10/10 04:38:44;;;;;;;;;;;;;;;;;;4714265;30;20036;-90
2022/10/10 04:41:10;;;;;;;;;;;;;;;;;;4720905;30;20413;-90
2022/10/10 04:43:36;;;;;;;;;;;;;;;;;;4731090;30;19934;-89
2022/10/10 04:46:02;;;;;;;;;;;;;;;;;;4740958;30;19930;-90
2022/10/10 04:48:30;;;;;;;;;;;;;;;;;;4730720;30;19930;-90
2022/10/10 04:50:56;;;;;;;;;;;;;;;;;;4725366;30;19934;-90
2022/10/10 04:53:22;;;;;;;;;;;;;;;;;;4714164;30;19988;-90
2022/10/10 04:55:48;;;;;;;;;;;;;;;;;;4719897;30;19942;-90
2022/10/10 04:58:14;;;;;;;;;;;;;;;;;;4727370;30;20001;-90
2022/10/10 05:00:40;;;;;;;;;;;;;;;;;;4737519;30;20352;-88
2022/10/10 05:03:06;;;;;;;;;;;;;;;;;;4730532;30;19930;-89
2022/10/10 05:05:32;;;;;;;;;;;;;;;;;;4721239;30;19930;-89
2022/10/10 05:07:58;;;;;;;;;;;;;;;;;;4726752;30;20339;-89
2022/10/10 05:10:24;;;;;;;;;;;;;;;;;;4732353;30;19934;-89
2022/10/10 05:12:50;;;;;;;;;;;;;;;;;;4721047;30;19926;-89
2022/10/10 05:15:16;;;;;;;;;;;;;;;;;;4738556;30;20400;-89
2022/10/10 05:17:42;;;;;;;;;;;;;;;;;;4744656;30;19961;-89
2022/10/10 05:20:08;;;;;;;;;;;;;;;;;;4736416;29;23329;-89
2022/10/10 05:22:34;;;;;;;;;;;;;;;;;;4747237;30;20282;-89
2022/10/10 05:25:00;;;;;;;;;;;;;;;;;;4732092;29;20400;-89
2022/10/10 05:27:26;;;;;;;;;;;;;;;;;;4738845;30;20008;-89
2022/10/10 05:29:55;;;;;;;;;;;;;;;;;;4749459;29;20386;-89
2022/10/10 05:32:21;;;;;;;;;;;;;;;;;;4739332;30;19926;-89
2022/10/10 05:34:47;;;;;;;;;;;;;;;;;;4746498;30;20377;-90
2022/10/10 05:37:13;;;;;;;;;;;;;;;;;;4733241;29;19982;-90
2022/10/10 05:39:39;;;;;;;;;;;;;;;;;;4748471;30;20435;-89
2022/10/10 05:42:05;;;;;;;;;;;;;;;;;;4734731;29;20040;-89
2022/10/10 05:44:31;;;;;;;;;;;;;;;;;;4741853;30;20020;-89
2022/10/10 05:46:57;;;;;;;;;;;;;;;;;;4732724;29;19937;-90
2022/10/10 05:49:23;;;;;;;;;;;;;;;;;;4752669;30;19933;-89
2022/10/10 05:51:48;;;;;;;;;;;;;;;;;;4750173;30;19972;-89
2022/10/10 05:54:15;;;;;;;;;;;;;;;;;;4728864;30;19941;-90
2022/10/10 05:56:43;;;;;;;;;;;;;;;;;;4735000;30;20382;-90
2022/10/10 05:59:09;;;;;;;;;;;;;;;;;;4742200;29;19933;-90
2022/10/10 06:01:35;;;;;;;;;;;;;;;;;;4747232;30;19941;-90
2022/10/10 06:04:01;;;;;;;;;;;;;;;;;;4735010;29;19969;-90
2022/10/10 06:06:27;;;;;;;;;;;;;;;;;;4724856;29;20298;-90
2022/10/10 06:08:54;;;;;;;;;;;;;;;;;;4723080;30;19929;-91
2022/10/10 06:11:22;;;;;;;;;;;;;;;;;;4730162;29;20387;-90
2022/10/10 06:13:53;;;;;;;;;;;;;;;;;;4734914;29;19978;-90
2022/10/10 06:16:19;;;;;;;;;;;;;;;;;;4743452;30;19940;-89
2022/10/10 06:18:45;;;;;;;;;;;;;;;;;;4742307;30;19934;-90
2022/10/10 06:21:10;;;;;;;;;;;;;;;;;;4749276;29;19929;-90
2022/10/10 06:23:36;;;;;;;;;;;;;;;;;;4751798;29;20270;-90
2022/10/10 06:26:03;;;;;;;;;;;;;;;;;;4729277;29;19933;-90
2022/10/10 06:28:29;;;;;;;;;;;;;;;;;;4751407;29;19979;-90
2022/10/10 06:30:55;;;;;;;;;;;;;;;;;;4750144;30;19933;-90
2022/10/10 06:33:21;;;;;;;;;;;;;;;;;;4748497;30;19933;-90
2022/10/10 06:35:47;;;;;;;;;;;;;;;;;;4743449;30;20385;-90
2022/10/10 06:38:14;;;;;;;;;;;;;;;;;;4741973;30;19944;-89
2022/10/10 06:40:39;;;;;;;;;;;;;;;;;;4744095;30;19933;-90
2022/10/10 06:43:12;;;;;;;;;;;;;;;;;;4744232;29;19952;-90
2022/10/10 06:45:38;;;;;;;;;;;;;;;;;;4735017;29;19933;-90
2022/10/10 06:48:04;;;;;;;;;;;;;;;;;;4753207;29;19933;-89
2022/10/10 06:50:30;;;;;;;;;;;;;;;;;;4751186;30;19932;-89
2022/10/10 06:52:56;;;;;;;;;;;;;;;;;;4748712;29;20305;-90
2022/10/10 06:55:22;;;;;;;;;;;;;;;;;;4737526;30;19937;-90
2022/10/10 06:57:48;;;;;;;;;;;;;;;;;;4748563;29;20340;-90
2022/10/10 07:00:14;;;;;;;;;;;;;;;;;;4751361;30;19925;-90
2022/10/10 07:02:41;;;;;;;;;;;;;;;;;;4752632;30;19982;-90
2022/10/10 07:05:08;;;;;;;;;;;;;;;;;;4740685;29;21673;-90
2022/10/10 07:07:34;;;;;;;;;;;;;;;;;;4737456;30;19933;-90
2022/10/10 07:10:00;;;;;;;;;;;;;;;;;;4742092;29;20030;-90
2022/10/10 07:12:26;;;;;;;;;;;;;;;;;;4745386;30;19925;-90
2022/10/10 07:14:52;;;;;;;;;;;;;;;;;;4739269;30;19965;-90
2022/10/10 07:17:18;;;;;;;;;;;;;;;;;;4739846;29;19929;-91
2022/10/10 07:19:44;;;;;;;;;;;;;;;;;;4743996;30;20015;-89
2022/10/10 07:22:10;;;;;;;;;;;;;;;;;;4741208;29;20473;-91
2022/10/10 07:24:36;;;;;;;;;;;;;;;;;;4743978;30;19972;-91
2022/10/10 07:27:01;;;;;;;;;;;;;;;;;;4734228;29;19963;-91
2022/10/10 07:29:29;;;;;;;;;;;;;;;;;;4726609;30;19934;-90
2022/10/10 07:31:55;;;;;;;;;;;;;;;;;;4737538;29;19925;-92
2022/10/10 07:34:21;;;;;;;;;;;;;;;;;;4730518;29;19926;-94
2022/10/10 07:36:49;;;;;;;;;;;;;;;;;;4742569;30;19933;-91
2022/10/10 07:39:15;;;;;;;;;;;;;;;;;;4742961;30;19933;-91
2022/10/10 07:41:41;;;;;;;;;;;;;;;;;;4742126;30;19926;-91
2022/10/10 07:44:07;;;;;;;;;;;;;;;;;;4725739;29;19940;-91
2022/10/10 07:46:33;;;;;;;;;;;;;;;;;;4733862;30;20298;-92
2022/10/10 07:48:59;;;;;;;;;;;;;;;;;;4747636;29;19929;-91
2022/10/10 07:51:25;;;;;;;;;;;;;;;;;;4749240;30;20067;-92
2022/10/10 07:53:51;;;;;;;;;;;;;;;;;;4740860;29;20355;-91
2022/10/10 07:56:17;;;;;;;;;;;;;;;;;;4727187;30;19967;-91
2022/10/10 07:58:43;;;;;;;;;;;;;;;;;;4733869;30;20374;-91
2022/10/10 08:01:09;;;;;;;;;;;;;;;;;;4739944;29;21371;-91
2022/10/10 08:03:34;;;;;;;;;;;;;;;;;;4734649;30;19929;-91
2022/10/10 08:06:00;;;;;;;;;;;;;;;;;;4746661;29;20012;-90
2022/10/10 08:08:26;;;;;;;;;;;;;;;;;;4736056;30;19990;-91
2022/10/10 08:10:52;;;;;;;;;;;;;;;;;;4729224;29;20387;-91
2022/10/10 08:13:18;;;;;;;;;;;;;;;;;;4740834;30;20365;-90
2022/10/10 08:15:44;;;;;;;;;;;;;;;;;;4728227;29;19933;-91
2022/10/10 08:18:10;;;;;;;;;;;;;;;;;;4725925;30;20389;-91
2022/10/10 08:20:36;;;;;;;;;;;;;;;;;;4747322;30;19929;-91
2022/10/10 08:23:02;;;;;;;;;;;;;;;;;;4730487;29;20510;-90
2022/10/10 08:25:28;;;;;;;;;;;;;;;;;;4748054;29;19942;-91
2022/10/10 08:27:54;;;;;;;;;;;;;;;;;;4727007;29;20362;-91
2022/10/10 08:30:20;;;;;;;;;;;;;;;;;;4747313;30;19929;-91
2022/10/10 08:32:46;;;;;;;;;;;;;;;;;;4733268;30;20371;-91
2022/10/10 08:35:12;;;;;;;;;;;;;;;;;;4743740;29;19940;-91
2022/10/10 08:37:38;;;;;;;;;;;;;;;;;;4728367;30;19933;-91
2022/10/10 08:40:04;;;;;;;;;;;;;;;;;;4738453;29;19986;-91
2022/10/10 08:42:30;;;;;;;;;;;;;;;;;;4743140;30;19929;-90
2022/10/10 08:44:56;;;;;;;;;;;;;;;;;;4742014;29;20041;-91
2022/10/10 08:47:22;;;;;;;;;;;;;;;;;;4743065;29;20386;-90
2022/10/10 08:49:51;;;;;;;;;;;;;;;;;;4747699;30;22115;-91
2022/10/10 08:52:17;;;;;;;;;;;;;;;;;;4731230;30;19937;-91
2022/10/10 08:54:43;;;;;;;;;;;;;;;;;;4743806;30;19933;-91
2022/10/10 08:57:09;;;;;;;;;;;;;;;;;;4740630;29;21895;-90
2022/10/10 08:59:35;;;;;;;;;;;;;;;;;;4731890;30;19952;-91
2022/10/10 09:02:01;;;;;;;;;;;;;;;;;;4740711;29;19988;-91
2022/10/10 09:04:31;;;;;;;;;;;;;;;;;;4730899;30;19940;-91
2022/10/10 09:06:57;;;;;;;;;;;;;;;;;;4737201;29;19933;-91
2022/10/10 09:09:23;;;;;;;;;;;;;;;;;;4724135;30;20380;-91
2022/10/10 09:11:49;;;;;;;;;;;;;;;;;;4727569;29;19996;-90
2022/10/10 09:14:15;;;;;;;;;;;;;;;;;;4743668;29;19929;-90
2022/10/10 09:16:40;;;;;;;;;;;;;;;;;;4733114;30;19935;-90
2022/10/10 09:19:06;;;;;;;;;;;;;;;;;;4738084;29;20396;-90
2022/10/10 09:21:35;;;;;;;;;;;;;;;;;;4729372;30;19937;-90
2022/10/10 09:24:01;;;;;;;;;;;;;;;;;;4737129;29;19929;-90
2022/10/10 09:26:27;;;;;;;;;;;;;;;;;;4742805;30;19929;-90
2022/10/10 09:28:53;;;;;;;;;;;;;;;;;;4723225;29;19929;-91
2022/10/10 09:31:19;;;;;;;;;;;;;;;;;;4742809;30;20023;-90
2022/10/10 09:33:45;;;;;;;;;;;;;;;;;;4743110;30;19933;-90
2022/10/10 09:36:11;;;;;;;;;;;;;;;;;;4737457;29;19940;-90
2022/10/10 09:38:37;;;;;;;;;;;;;;;;;;4739918;29;19940;-91
2022/10/10 09:41:03;;;;;;;;;;;;;;;;;;4740206;29;20009;-91
2022/10/10 09:43:29;;;;;;;;;;;;;;;;;;4743722;30;20458;-91
2022/10/10 09:45:55;;;;;;;;;;;;;;;;;;4735645;29;19936;-91
2022/10/10 09:48:21;;;;;;;;;;;;;;;;;;4741764;30;20027;-91
2022/10/10 09:50:47;;;;;;;;;;;;;;;;;;4734238;30;20435;-91
2022/10/10 09:53:13;;;;;;;;;;;;;;;;;;4719379;29;19932;-92
2022/10/10 09:55:39;;;;;;;;;;;;;;;;;;4746840;30;20622;-90
2022/10/10 09:58:07;;;;;;;;;;;;;;;;;;4722944;29;19934;-91
2022/10/10 10:00:33;;;;;;;;;;;;;;;;;;4747320;29;20297;-91
2022/10/10 10:02:59;;;;;;;;;;;;;;;;;;4738421;29;19926;-91
2022/10/10 10:05:25;;;;;;;;;;;;;;;;;;4727838;30;20442;-91
2022/10/10 10:07:51;;;;;;;;;;;;;;;;;;4720664;29;19936;-91
2022/10/10 10:10:17;;;;;;;;;;;;;;;;;;4736467;30;19937;-91
2022/10/10 10:12:43;;;;;;;;;;;;;;;;;;4723836;30;19934;-91
2022/10/10 10:15:09;;;;;;;;;;;;;;;;;;4738790;29;19943;-91
2022/10/10 10:17:35;;;;;;;;;;;;;;;;;;4727580;30;19934;-91
2022/10/10 10:20:01;;;;;;;;;;;;;;;;;;4725971;29;20293;-92
2022/10/10 10:22:27;;;;;;;;;;;;;;;;;;4743702;30;19937;-91
2022/10/10 10:24:53;;;;;;;;;;;;;;;;;;4744899;29;19933;-91
2022/10/10 10:27:19;;;;;;;;;;;;;;;;;;4733367;30;19938;-91
2022/10/10 10:29:45;;;;;;;;;;;;;;;;;;4748398;30;19933;-90
2022/10/10 10:32:11;;;;;;;;;;;;;;;;;;4747211;29;19998;-91
2022/10/10 10:34:37;;;;;;;;;;;;;;;;;;4749966;30;19937;-91
2022/10/10 10:37:03;;;;;;;;;;;;;;;;;;4744621;29;19933;-90
2022/10/10 10:39:29;;;;;;;;;;;;;;;;;;4736002;30;19940;-91
2022/10/10 10:41:55;;;;;;;;;;;;;;;;;;4732495;30;19929;-91
2022/10/10 10:44:21;;;;;;;;;;;;;;;;;;4728465;30;19937;-91
2022/10/10 10:46:47;;;;;;;;;;;;;;;;;;4745945;30;19930;-91
2022/10/10 10:49:14;;;;;;;;;;;;;;;;;;4743259;30;19934;-91
2022/10/10 10:51:40;;;;;;;;;;;;;;;;;;4750386;30;20543;-91
2022/10/10 10:54:06;;;;;;;;;;;;;;;;;;4741979;29;20070;-91
2022/10/10 10:56:32;;;;;;;;;;;;;;;;;;4735572;29;19929;-91
2022/10/10 10:58:58;;;;;;;;;;;;;;;;;;4744267;29;20008;-91
2022/10/10 11:01:24;;;;;;;;;;;;;;;;;;4734885;30;19933;-92
2022/10/10 11:03:50;;;;;;;;;;;;;;;;;;4729502;29;19941;-91
2022/10/10 11:06:16;;;;;;;;;;;;;;;;;;4751473;30;19929;-92
2022/10/10 11:08:42;;;;;;;;;;;;;;;;;;4728447;29;20002;-91
2022/10/10 11:11:08;;;;;;;;;;;;;;;;;;4724217;29;19930;-91
2022/10/10 11:13:34;;;;;;;;;;;;;;;;;;4732230;29;19929;-92
2022/10/10 11:16:17;;;;;;;;;;;;;;;;;;4730550;29;20067;-91
2022/10/10 11:19:02;;;;;;;;;;;;;;;;;;4729054;30;19945;-91
2022/10/10 11:21:44;;;;;;;;;;;;;;;;;;4746031;29;20988;-91
2022/10/10 11:27:01;;;;;;;;;;;;;;;;;;4743943;29;20028;-92
2022/10/10 11:29:30;;;;;;;;;;;;;;;;;;4729902;30;19953;-91
2022/10/10 11:32:16;;;;;;;;;;;;;;;;;;4734407;29;19969;-90
2022/10/10 11:34:58;;;;;;;;;;;;;;;;;;4745769;29;20071;-90
2022/10/10 11:37:29;;;;;;;;;;;;;;;;;;4729787;29;20308;-91
2022/10/10 11:40:01;;;;;;;;;;;;;;;;;;4719451;29;20458;-92
2022/10/10 11:45:31;;;;;;;;;;;;;;;;;;4732816;29;19933;-91
2022/10/10 11:50:55;;;;;;;;;;;;;;;;;;4746765;29;19985;-91
2022/10/10 11:56:26;;;;;;;;;;;;;;;;;;4748039;30;19937;-91
2022/10/10 11:58:58;;;;;;;;;;;;;;;;;;4743267;29;19934;-91
2022/10/10 12:01:36;;;;;;;;;;;;;;;;;;4742119;30;20415;-90
2022/10/10 12:04:05;;;;;;;;;;;;;;;;;;4719769;30;19929;-91
2022/10/10 12:06:34;;;;;;;;;;;;;;;;;;4739240;29;19940;-90
2022/10/10 12:09:01;;;;;;;;;;;;;;;;;;4730629;29;19934;-90
2022/10/10 12:11:42;;;;;;;;;;;;;;;;;;4747657;30;19934;-91
2022/10/10 12:14:11;;;;;;;;;;;;;;;;;;4740557;30;19934;-91
2022/10/10 12:16:50;;;;;;;;;;;;;;;;;;;;;
2022/10/10 12:19:17;;;;;;;;;;;;;;;;;;4739563;30;20028;-91
2022/10/10 12:21:46;;;;;;;;;;;;;;;;;;4741413;30;20028;-91
2022/10/10 12:24:36;;;;;;;;;;;;;;;;;;4743173;30;19941;-91
2022/10/10 12:27:05;;;;;;;;;;;;;;;;;;4721742;29;20815;-91
2022/10/10 12:29:41;;;;;;;;;;;;;;;;;;;;;
2022/10/10 12:32:26;;;;;;;;;;;;;;;;;;4753976;29;22786;-91
2022/10/10 12:35:06;;;;;;;;;;;;;;;;;;4730362;29;19985;-92
2022/10/10 12:37:50;;;;;;;;;;;;;;;;;;4737953;29;22006;-91
2022/10/10 12:40:31;;;;;;;;;;;;;;;;;;4740378;29;19938;-92
2022/10/10 12:43:06;;;;;;;;;;;;;;;;;;4729553;29;19941;-91
2022/10/10 12:48:39;;;;;;;;;;;;;;;;;;4755178;29;19937;-91
2022/10/10 12:51:05;;;;;;;;;;;;;;;;;;4737895;29;19947;-91
2022/10/10 12:53:37;;;;;;;;;;;;;;;;;;4738119;30;21036;-89
2022/10/10 12:56:09;;;;;;;;;;;;;;;;;;4688810;30;20365;-92
2022/10/10 12:59:08;;;;;;;;;;;;;;;;;;4711627;30;19930;-92
2022/10/10 13:04:58;;;;;;;;;;;;;;;;;;;;;
2022/10/10 13:07:55;;;;;;;;;;;;;;;;;;4713847;30;19930;-92
2022/10/10 13:16:01;;;;;;;;;;;;;;;;;;4694873;30;19993;-84
2022/10/10 13:24:07;;;;;;;;;;;;;;;;;;4787719;29;19997;-90
2022/10/10 13:26:36;;;;;;;;;;;;;;;;;;4772594;29;20382;-91
2022/10/10 13:29:11;;;;;;;;;;;;;;;;;;4768795;29;19941;-91
2022/10/10 13:31:40;;;;;;;;;;;;;;;;;;4749247;29;20326;-90
2022/10/10 13:34:15;;;;;;;;;;;;;;;;;;4768567;29;20419;-91
2022/10/10 13:37:13;;;;;;;;;;;;;;;;;;;;;
2022/10/10 13:39:41;;;;;;;;;;;;;;;;;;4783348;29;19932;-90
2022/10/10 13:42:11;;;;;;;;;;;;;;;;;;4753857;29;19936;-90
2022/10/10 13:44:37;;;;;;;;;;;;;;;;;;4758031;29;19933;-90
2022/10/10 13:47:22;;;;;;;;;;;;;;;;;;4763831;29;19955;-90
2022/10/10 13:49:51;;;;;;;;;;;;;;;;;;4761897;29;19998;-91
2022/10/10 13:52:32;;;;;;;;;;;;;;;;;;4747998;30;19934;-91
2022/10/10 13:58:19;;;;;;;;;;;;;;;;;;;;;
2022/10/10 14:00:51;;;;;;;;;;;;;;;;;;4729206;30;19934;-90
2022/10/10 14:03:34;;;;;;;;;;;;;;;;;;4705451;30;19933;-92
2022/10/10 14:14:57;;;;;;;;;;;;;;;;;;4722519;30;19930;-91
2022/10/10 14:17:28;;;;;;;;;;;;;;;;;;4689373;30;19935;-90
2022/10/10 14:20:10;;;;;;;;;;;;;;;;;;4701146;30;19934;-91
2022/10/10 14:23:02;;;;;;;;;;;;;;;;;;4700869;29;19959;-91
2022/10/10 14:25:36;;;;;;;;;;;;;;;;;;4739954;30;20012;-91
2022/10/10 14:31:27;;;;;;;;;;;;;;;;;;4682724;30;19941;-92
2022/10/10 14:34:20;;;;;;;;;;;;;;;;;;4641788;30;19927;-91
2022/10/10 14:37:01;;;;;;;;;;;;;;;;;;4654921;30;19994;-91
2022/10/10 14:43:01;;;;;;;;;;;;;;;;;;4691089;30;19981;-91
2022/10/10 14:45:48;;;;;;;;;;;;;;;;;;4701205;30;19930;-91
2022/10/10 14:48:38;;;;;;;;;;;;;;;;;;4709586;30;19941;-91
2022/10/10 14:51:15;;;;;;;;;;;;;;;;;;4687310;30;19935;-92
2022/10/10 14:56:40;;;;;;;;;;;;;;;;;;4733338;30;19941;-92
2022/10/10 14:59:24;;;;;;;;;;;;;;;;;;;;;
2022/10/10 15:02:12;;;;;;;;;;;;;;;;;;4710665;30;20095;-92
2022/10/10 15:04:41;;;;;;;;;;;;;;;;;;4713394;30;19929;-92
2022/10/10 15:07:25;;;;;;;;;;;;;;;;;;4698993;30;20021;-93
2022/10/10 15:13:06;;;;;;;;;;;;;;;;;;4680516;30;20387;-93
2022/10/10 15:18:32;;;;;;;;;;;;;;;;;;4678660;30;20034;-93
2022/10/10 15:21:09;;;;;;;;;;;;;;;;;;4690193;30;19945;-94
2022/10/10 15:24:04;;;;;;;;;;;;;;;;;;4685875;30;19946;-94
2022/10/10 15:29:19;;;;;;;;;;;;;;;;;;4698408;30;20008;-93
2022/10/10 15:32:11;;;;;;;;;;;;;;;;;;4711370;30;19934;-93
2022/10/10 15:34:40;;;;;;;;;;;;;;;;;;4728932;30;20019;-92
2022/10/10 15:37:09;;;;;;;;;;;;;;;;;;4703818;30;20983;-92
2022/10/10 15:39:35;;;;;;;;;;;;;;;;;;4722863;30;22515;-89
2022/10/10 15:42:12;;;;;;;;;;;;;;;;;;4760245;29;20007;-92
2022/10/10 15:44:50;;;;;;;;;;;;;;;;;;4745380;29;20404;-91
2022/10/10 15:47:16;;;;;;;;;;;;;;;;;;4761411;29;20032;-92
2022/10/10 15:49:42;;;;;;;;;;;;;;;;;;4742275;29;19932;-92
2022/10/10 15:52:08;;;;;;;;;;;;;;;;;;4743081;29;19938;-91
2022/10/10 15:54:34;;;;;;;;;;;;;;;;;;4760317;29;20023;-92
2022/10/10 15:57:00;;;;;;;;;;;;;;;;;;4742171;29;19933;-92
2022/10/10 16:00:27;;;;;;;;;;;;;;;;;;4749725;29;19929;-93
2022/10/10 16:02:21;;;;;;;;;;;;;;;;;;4744094;29;19932;-92
2022/10/10 16:04:51;;;;;;;;;;;;;;;;;;4743697;29;19991;-92
2022/10/10 16:07:23;;;;;;;;;;;;;;;;;;4744048;29;20358;-92
2022/10/10 16:10:01;;;;;;;;;;;;;;;;;;;;;
2022/10/10 16:15:37;;;;;;;;;;;;;;;;;;4758454;29;19933;-93
2022/10/10 16:18:27;;;;;;;;;;;;;;;;;;4756003;29;19988;-94
2022/10/10 16:26:30;;;;;;;;;;;;;;;;;;4774966;29;19933;-92
2022/10/10 16:28:59;;;;;;;;;;;;;;;;;;4737782;29;19933;-92
2022/10/10 16:31:31;;;;;;;;;;;;;;;;;;4756624;29;20045;-93
2022/10/10 16:34:03;;;;;;;;;;;;;;;;;;4743819;29;19929;-92
2022/10/10 16:36:29;;;;;;;;;;;;;;;;;;4741401;29;20293;-92
2022/10/10 16:38:58;;;;;;;;;;;;;;;;;;4741847;29;19933;-92
2022/10/10 16:41:29;;;;;;;;;;;;;;;;;;4759879;29;19936;-92
2022/10/10 16:43:55;;;;;;;;;;;;;;;;;;4753762;29;19933;-92
2022/10/10 16:46:21;;;;;;;;;;;;;;;;;;4758098;29;20006;-93
2022/10/10 16:48:47;;;;;;;;;;;;;;;;;;4764297;29;19937;-92
2022/10/10 16:51:13;;;;;;;;;;;;;;;;;;4753767;29;20559;-92
2022/10/10 16:53:42;;;;;;;;;;;;;;;;;;4774730;29;20381;-92
2022/10/10 16:56:10;;;;;;;;;;;;;;;;;;4742355;29;20266;-92
2022/10/10 16:58:36;;;;;;;;;;;;;;;;;;4745809;29;20456;-92
2022/10/10 17:01:02;;;;;;;;;;;;;;;;;;4773366;29;20024;-92
2022/10/10 17:03:28;;;;;;;;;;;;;;;;;;4756227;29;19982;-92
2022/10/10 17:05:54;;;;;;;;;;;;;;;;;;4769533;29;20401;-91
2022/10/10 17:08:20;;;;;;;;;;;;;;;;;;4750412;29;19939;-92
2022/10/10 17:10:55;;;;;;;;;;;;;;;;;;4744209;29;19933;-92
2022/10/10 17:13:21;;;;;;;;;;;;;;;;;;4747346;29;19964;-92
2022/10/10 17:15:50;;;;;;;;;;;;;;;;;;4773464;29;19977;-92
2022/10/10 17:18:19;;;;;;;;;;;;;;;;;;4769245;29;20085;-92
2022/10/10 17:20:45;;;;;;;;;;;;;;;;;;4757085;29;20797;-92
2022/10/10 17:23:18;;;;;;;;;;;;;;;;;;4747885;29;19925;-92
2022/10/10 17:25:44;;;;;;;;;;;;;;;;;;4748637;29;20359;-92
2022/10/10 17:28:10;;;;;;;;;;;;;;;;;;4735854;29;20440;-93
2022/10/10 17:30:36;;;;;;;;;;;;;;;;;;4757293;29;19971;-93
2022/10/10 17:33:05;;;;;;;;;;;;;;;;;;4749515;29;19933;-92
2022/10/10 17:35:31;;;;;;;;;;;;;;;;;;4745735;29;19968;-91
2022/10/10 17:37:57;;;;;;;;;;;;;;;;;;4752255;29;19929;-94
2022/10/10 17:40:24;;;;;;;;;;;;;;;;;;4748490;29;20384;-92
2022/10/10 17:42:50;;;;;;;;;;;;;;;;;;4744732;29;19933;-90
2022/10/10 17:45:16;;;;;;;;;;;;;;;;;;4749250;29;19925;-93
2022/10/10 17:47:44;;;;;;;;;;;;;;;;;;4763938;29;19933;-91
2022/10/10 17:50:11;;;;;;;;;;;;;;;;;;4748625;29;19933;-90
2022/10/10 17:52:38;;;;;;;;;;;;;;;;;;4762242;29;19929;-94
2022/10/10 17:55:04;;;;;;;;;;;;;;;;;;4742869;29;20029;-92
2022/10/10 17:57:35;;;;;;;;;;;;;;;;;;4763468;29;19940;-96
2022/10/10 18:00:01;;;;;;;;;;;;;;;;;;4746970;29;19934;-92
2022/10/10 18:02:27;;;;;;;;;;;;;;;;;;4752898;29;19932;-92
2022/10/10 18:05:07;;;;;;;;;;;;;;;;;;4753005;29;20680;-92
2022/10/10 18:07:33;;;;;;;;;;;;;;;;;;4745682;29;20499;-91